Time;durP1;ratioP1;P1;durP2;ratioP2;P2;SDS_P1;SDS_P2;PMS_P1;PMS_P2;Temp;Humidity;BMP_temperature;BMP_pressure;BME280_temperature;BME280_humidity;BME280_pressure;Samples;Min_cycle;Max_cycle;Signal;HPM_P1;HPM_P2
2022/01/18 00:01:57;;;;;;;1.23;1.13;;;4.80;90.70;;;4.64;63.04;95108.88;5076968;28;20502;-58
2022/01/18 00:04:27;;;;;;;1.50;1.40;;;4.80;90.90;;;4.60;62.02;95099.63;5073103;28;20994;-56
2022/01/18 00:06:54;;;;;;;1.70;1.60;;;4.80;90.00;;;4.59;61.88;95107.53;5073856;28;20471;-57
2022/01/18 00:09:25;;;;;;;1.80;1.70;;;4.70;89.90;;;4.55;63.34;95117.28;5071472;28;20455;-58
2022/01/18 00:12:00;;;;;;;2.20;1.70;;;4.70;90.80;;;4.52;63.54;95112.28;5073919;28;20471;-57
2022/01/18 00:14:40;;;;;;;1.60;1.50;;;4.70;90.90;;;4.49;63.24;95110.72;5079985;28;20441;-56
2022/01/18 00:17:18;;;;;;;1.83;1.73;;;4.70;90.60;;;4.48;62.55;95118.63;5075809;28;20850;-57
2022/01/18 00:19:53;;;;;;;4.27;1.83;;;4.60;89.90;;;4.47;63.00;95124.75;5075511;28;20844;-58
2022/01/18 00:22:21;;;;;;;1.70;1.60;;;4.60;90.80;;;4.47;64.07;95129.97;5078163;28;20460;-58
2022/01/18 00:24:48;;;;;;;1.70;1.57;;;4.60;91.10;;;4.45;62.61;95126.63;5074615;28;20451;-62
2022/01/18 00:27:17;;;;;;;2.47;1.60;;;4.60;90.40;;;4.45;62.57;95131.84;5076125;28;20455;-58
2022/01/18 00:29:55;;;;;;;1.93;1.83;;;4.60;90.60;;;4.44;63.43;95135.38;5074817;28;20450;-61
2022/01/18 00:32:32;;;;;;;2.90;2.17;;;4.60;90.80;;;4.43;61.50;95118.06;5076708;28;20504;-57
2022/01/18 00:34:59;;;;;;;2.30;2.10;;;4.60;89.90;;;4.42;62.95;95126.81;5077824;28;20447;-57
2022/01/18 00:37:34;;;;;;;2.70;1.77;;;4.60;90.60;;;4.41;61.71;95123.34;5071466;28;20459;-55
2022/01/18 00:40:01;;;;;;;2.20;2.10;;;4.60;89.90;;;4.44;62.30;95123.16;5079644;28;20454;-57
2022/01/18 00:42:28;;;;;;;2.20;2.10;;;4.60;90.20;;;4.44;62.09;95127.56;5074475;28;20456;-58
2022/01/18 00:44:57;;;;;;;2.60;2.40;;;4.60;89.90;;;4.45;61.48;95142.25;5072120;28;20929;-56
2022/01/18 00:47:24;;;;;;;2.33;2.23;;;4.60;89.50;;;4.45;60.87;95143.09;5075536;28;20472;-58
2022/01/18 00:49:59;;;;;;;2.50;2.40;;;4.60;88.40;;;4.42;61.55;95166.72;5072434;28;20505;-56
2022/01/18 00:52:27;;;;;;;2.60;2.50;;;4.60;88.80;;;4.40;62.16;95176.41;5071148;28;20559;-57
2022/01/18 00:54:54;;;;;;;2.87;2.67;;;4.60;89.90;;;4.40;61.79;95183.34;5073082;28;20473;-56
2022/01/18 00:57:22;;;;;;;2.90;2.60;;;4.50;89.80;;;4.39;61.98;95195.53;5073766;28;21079;-56
2022/01/18 00:59:49;;;;;;;5.13;3.33;;;4.50;89.80;;;4.40;61.73;95206.78;5075317;28;20473;-57
2022/01/18 01:02:18;;;;;;;2.97;2.77;;;4.60;89.90;;;4.43;62.25;95227.44;5074289;28;20450;-57
2022/01/18 01:04:48;;;;;;;3.30;2.90;;;4.60;90.10;;;4.44;61.79;95218.69;5071646;28;20455;-56
2022/01/18 01:07:16;;;;;;;2.67;2.47;;;4.60;90.40;;;4.43;63.18;95233.50;5073326;28;20435;-57
2022/01/18 01:09:43;;;;;;;2.87;2.67;;;4.60;90.70;;;4.43;64.39;95217.88;5077172;28;20450;-57
2022/01/18 01:12:13;;;;;;;2.60;2.50;;;4.60;91.50;;;4.43;65.58;95214.41;5074403;28;20592;-57
2022/01/18 01:14:40;;;;;;;3.20;2.87;;;4.60;92.30;;;4.37;66.48;95220.84;5077486;28;20458;-55
2022/01/18 01:17:21;;;;;;;3.70;3.50;;;4.50;92.90;;;4.29;65.57;95236.09;5080567;28;20994;-57
2022/01/18 01:34:03;;;;;;;1.50;1.40;;;3.70;96.40;;;3.40;71.48;95307.13;5078776;28;20426;-56
2022/01/18 01:42:15;;;;;;;2.00;1.80;;;3.50;97.10;;;3.44;67.38;95297.41;5057377;28;20458;-57
2022/01/18 01:44:47;;;;;;;2.00;1.90;;;3.60;95.40;;;3.46;68.58;95291.19;5073554;28;20493;-56
2022/01/18 01:47:18;;;;;;;2.50;2.30;;;3.60;95.60;;;3.49;69.00;95298.81;5072351;28;20454;-57
2022/01/18 01:49:48;;;;;;;2.40;2.30;;;3.60;96.60;;;3.53;69.02;95309.88;5073220;28;20729;-57
2022/01/18 01:52:17;;;;;;;3.93;2.17;;;3.70;96.40;;;3.55;68.30;95308.88;5076974;28;20915;-56
2022/01/18 01:54:44;;;;;;;3.53;3.10;;;3.70;95.70;;;3.57;66.51;95308.78;5077963;28;20458;-56
2022/01/18 01:57:11;;;;;;;5.63;2.90;;;3.70;94.70;;;3.56;65.80;95313.16;5077566;28;20477;-56
2022/01/18 01:59:40;;;;;;;1.97;1.87;;;3.70;94.00;;;3.56;65.31;95305.38;5080761;28;20453;-58
2022/01/18 02:02:07;;;;;;;2.43;1.40;;;3.70;93.10;;;3.55;64.52;95305.44;5079688;28;20480;-57
2022/01/18 02:04:35;;;;;;;1.90;1.80;;;3.70;92.50;;;3.53;63.00;95312.47;5075182;28;20847;-56
2022/01/18 02:07:02;;;;;;;1.80;1.70;;;3.70;91.40;;;3.48;62.12;95299.75;5076414;28;20474;-56
2022/01/18 02:09:31;;;;;;;1.23;1.13;;;3.70;90.60;;;3.44;61.52;95297.41;5074350;28;20447;-56
2022/01/18 02:12:00;;;;;;;1.43;1.23;;;3.60;90.10;;;3.37;61.30;95289.94;5076558;28;20473;-57
2022/01/18 02:14:32;;;;;;;1.07;0.97;;;3.60;89.50;;;3.32;59.19;95298.94;5077202;28;20447;-56
2022/01/18 02:22:31;;;;;;;0.97;0.77;;;3.40;85.70;;;3.18;58.34;95349.91;5079274;28;20474;-57
2022/01/18 02:24:58;;;;;;;1.63;1.20;;;3.40;84.70;;;3.13;57.74;95349.34;5076618;28;20497;-56
2022/01/18 02:27:26;;;;;;;1.00;0.90;;;3.30;82.50;;;3.09;58.16;95368.59;5077862;28;20470;-56
2022/01/18 02:29:53;;;;;;;1.10;1.00;;;3.30;82.90;;;3.05;58.07;95362.75;5075205;28;20455;-57
2022/01/18 02:32:20;;;;;;;1.20;1.10;;;3.30;83.30;;;3.02;57.33;95370.69;5077140;28;20467;-57
2022/01/18 02:34:47;;;;;;;1.77;1.07;;;3.30;82.50;;;3.00;56.87;95371.69;5075329;28;20451;-56
2022/01/18 02:37:15;;;;;;;1.00;0.90;;;3.20;83.20;;;2.99;58.00;95385.59;5071957;28;20458;-56
2022/01/18 02:39:43;;;;;;;2.30;0.70;;;3.20;82.50;;;2.99;56.57;95386.44;5080454;28;20615;-56
2022/01/18 02:42:15;;;;;;;1.40;1.10;;;3.20;81.60;;;2.99;56.90;95398.56;5075715;28;20490;-56
2022/01/18 02:44:42;;;;;;;0.87;0.87;;;3.20;80.80;;;2.96;56.33;95407.41;5076412;28;20475;-55
2022/01/18 02:47:10;;;;;;;1.10;1.00;;;3.20;80.50;;;2.92;55.89;95418.84;5077327;28;20558;-54
2022/01/18 02:49:37;;;;;;;1.00;0.90;;;3.20;79.70;;;2.87;54.77;95433.84;5076810;28;20505;-55
2022/01/18 02:52:06;;;;;;;1.40;0.93;;;3.10;78.60;;;2.84;54.81;95436.59;5073862;28;20486;-56
2022/01/18 02:54:33;;;;;;;1.50;1.40;;;3.00;78.50;;;2.79;55.14;95444.63;5074502;28;20803;-55
2022/01/18 02:57:04;;;;;;;1.20;1.10;;;3.00;78.70;;;2.75;55.41;95450.91;5076287;28;20474;-55
2022/01/18 02:59:37;;;;;;;2.40;1.27;;;2.90;77.50;;;2.70;55.29;95450.31;5074860;28;20545;-57
2022/01/18 03:05:03;;;;;;;1.40;1.30;;;2.90;77.10;;;2.59;53.43;95457.81;5081173;28;20921;-56
2022/01/18 03:07:31;;;;;;;1.33;1.23;;;2.80;76.00;;;2.55;55.07;95459.69;5075183;28;20451;-55
2022/01/18 03:09:58;;;;;;;1.43;1.33;;;2.80;76.80;;;2.49;53.91;95468.66;5077776;28;20523;-56
2022/01/18 03:12:27;;;;;;;2.90;0.93;;;2.70;75.80;;;2.42;53.83;95469.03;5075454;28;20451;-57
2022/01/18 03:14:54;;;;;;;1.40;1.30;;;2.60;75.80;;;2.34;53.65;95464.22;5075691;28;20442;-56
2022/01/18 03:17:21;;;;;;;3.80;1.57;;;2.60;75.10;;;2.31;54.05;95472.13;5077906;28;20458;-55
2022/01/18 03:19:49;;;;;;;1.93;1.27;;;2.60;74.50;;;2.28;53.93;95474.88;5078327;28;21028;-56
2022/01/18 03:22:16;;;;;;;1.60;1.50;;;2.50;74.90;;;2.25;54.21;95469.84;5069588;28;21039;-54
2022/01/18 03:24:51;;;;;;;1.23;1.13;;;2.50;74.90;;;2.24;53.99;95474.16;5072384;28;20490;-56
2022/01/18 03:30:07;;;;;;;1.30;1.20;;;2.40;75.00;;;2.18;53.10;95484.03;5074739;28;20421;-57
2022/01/18 03:32:34;;;;;;;1.30;1.20;;;2.40;73.90;;;2.14;52.96;95480.75;5077032;28;20466;-56
2022/01/18 03:35:01;;;;;;;1.47;1.37;;;2.40;73.50;;;2.11;53.08;95483.47;5074920;28;20459;-55
2022/01/18 03:37:29;;;;;;;1.30;1.20;;;2.40;73.90;;;2.07;52.78;95472.38;5077929;28;20457;-55
2022/01/18 03:39:56;;;;;;;5.40;1.87;;;2.30;73.60;;;2.03;53.09;95476.06;5077409;28;20464;-55
2022/01/18 03:45:12;;;;;;;3.30;1.50;;;2.20;73.70;;;1.94;53.74;95463.53;5072138;28;20489;-56
2022/01/18 03:47:39;;;;;;;1.70;1.60;;;2.20;73.30;;;1.89;53.66;95453.38;5074471;28;20447;-56
2022/01/18 03:50:08;;;;;;;1.93;1.83;;;2.10;73.20;;;1.88;53.70;95467.25;5074292;28;20524;-56
2022/01/18 03:52:35;;;;;;;2.47;1.27;;;2.10;73.70;;;1.88;52.94;95477.63;5076512;28;20869;-57
2022/01/18 03:55:02;;;;;;;1.33;1.23;;;2.10;73.20;;;1.87;52.78;95480.28;5075086;28;20447;-55
2022/01/18 03:57:29;;;;;;;1.40;1.30;;;2.10;73.30;;;1.85;52.74;95492.50;5075039;28;20442;-54
2022/01/18 03:59:57;;;;;;;5.97;1.63;;;2.10;73.20;;;1.84;52.90;95496.81;5076253;28;20458;-56
2022/01/18 04:02:25;;;;;;;2.30;1.30;;;2.10;73.30;;;1.84;53.75;95490.81;5072215;28;20454;-56
2022/01/18 04:04:53;;;;;;;2.00;1.90;;;2.10;73.20;;;1.82;53.37;95497.81;5078605;28;21017;-57
2022/01/18 04:07:20;;;;;;;1.57;1.47;;;2.10;73.20;;;1.80;52.60;95495.31;5077534;28;20447;-56
2022/01/18 04:09:47;;;;;;;1.20;1.10;;;2.00;73.10;;;1.77;52.82;95503.22;5071308;28;20458;-57
2022/01/18 04:12:14;;;;;;;2.27;1.43;;;2.00;72.90;;;1.73;52.53;95504.25;5078628;28;21135;-57
2022/01/18 04:14:42;;;;;;;1.30;1.07;;;2.00;73.10;;;1.69;52.44;95513.94;5073100;28;20450;-57
2022/01/18 04:17:17;;;;;;;2.23;1.13;;;1.90;73.00;;;1.66;53.00;95516.69;5075404;28;20549;-57
2022/01/18 04:28:10;;;;;;;1.70;1.60;;;1.90;73.30;;;1.59;53.59;95561.94;5076838;28;20426;-56
2022/01/18 04:30:37;;;;;;;3.73;1.30;;;1.80;73.10;;;1.57;53.59;95566.34;5078149;28;20485;-58
2022/01/18 04:33:04;;;;;;;1.80;1.30;;;1.80;73.10;;;1.56;52.57;95565.50;5074985;28;20991;-56
2022/01/18 04:35:33;;;;;;;4.50;1.67;;;1.80;72.90;;;1.57;53.49;95571.53;5069024;28;20788;-56
2022/01/18 04:38:00;;;;;;;2.50;2.30;;;1.80;73.10;;;1.58;53.23;95586.16;5078846;28;20466;-57
2022/01/18 04:40:30;;;;;;;3.67;1.20;;;1.80;73.20;;;1.60;53.26;95595.56;5073386;28;20843;-57
2022/01/18 04:43:15;;;;;;;2.70;1.57;;;1.80;73.60;;;1.59;53.39;95593.03;5075966;28;20447;-57
2022/01/18 04:48:31;;;;;;;2.37;1.50;;;1.80;73.50;;;1.55;52.69;95601.84;5085806;28;20426;-55
2022/01/18 04:51:02;;;;;;;1.97;1.40;;;1.80;73.10;;;1.55;52.78;95625.19;5077838;28;20901;-56
2022/01/18 04:53:31;;;;;;;1.37;1.27;;;1.80;73.20;;;1.53;52.54;95619.22;5077668;28;20970;-58
2022/01/18 04:56:02;;;;;;;1.60;1.37;;;1.80;72.90;;;1.53;53.67;95621.81;5077909;28;20462;-58
2022/01/18 04:58:29;;;;;;;1.60;1.50;;;1.70;74.80;;;1.56;53.93;95621.69;5079620;28;20434;-58
2022/01/18 05:00:59;;;;;;;4.53;2.30;;;1.80;75.90;;;1.59;53.89;95613.78;5077491;28;20482;-58
2022/01/18 05:03:26;;;;;;;6.07;2.90;;;1.80;75.00;;;1.64;56.02;95616.19;5076941;28;20455;-56
2022/01/18 05:05:56;;;;;;;3.53;2.70;;;1.80;79.50;;;1.71;57.96;95615.84;5076782;28;20466;-58
2022/01/18 05:08:25;;;;;;;2.50;2.20;;;1.90;81.80;;;1.83;55.58;95621.38;5078979;28;20451;-56
2022/01/18 05:10:55;;;;;;;2.00;1.83;;;2.00;79.80;;;1.91;54.40;95621.91;5078471;28;20458;-56
2022/01/18 05:13:45;;;;;;;1.87;1.77;;;2.10;77.20;;;1.93;53.83;95625.25;5081187;28;20447;-56
2022/01/18 05:16:40;;;;;;;2.00;1.90;;;2.10;75.60;;;1.91;53.85;95627.09;5078438;28;20462;-56
2022/01/18 05:19:14;;;;;;;5.37;2.40;;;2.10;74.50;;;1.88;53.32;95642.78;5073625;28;20469;-57
2022/01/18 05:24:30;;;;;;;4.40;1.70;;;2.10;75.10;;;1.95;54.05;95657.16;5081601;28;20551;-56
2022/01/18 05:26:58;;;;;;;1.70;1.60;;;2.10;77.60;;;2.00;53.79;95651.75;5082000;28;20561;-56
2022/01/18 05:29:25;;;;;;;3.33;1.70;;;2.20;74.70;;;2.00;54.09;95664.72;5077182;28;20489;-56
2022/01/18 05:31:52;;;;;;;2.20;2.10;;;2.20;74.50;;;1.99;52.93;95663.91;5074783;28;20481;-58
2022/01/18 05:34:20;;;;;;;2.30;2.10;;;2.20;74.10;;;1.97;53.30;95679.53;5078191;28;20457;-58
2022/01/18 05:36:47;;;;;;;2.00;1.63;;;2.20;73.50;;;1.94;53.31;95694.41;5077598;28;20471;-56
2022/01/18 05:39:14;;;;;;;2.10;1.90;;;2.20;73.50;;;1.92;52.63;95698.78;5076335;28;20465;-57
2022/01/18 05:41:44;;;;;;;1.90;1.20;;;2.10;73.10;;;1.89;52.75;95691.16;5074144;28;20466;-57
2022/01/18 05:44:11;;;;;;;1.80;1.70;;;2.10;73.20;;;1.86;53.28;95693.88;5081998;28;21006;-58
2022/01/18 05:46:39;;;;;;;2.27;2.10;;;2.10;73.20;;;1.83;52.67;95694.00;5071225;28;20470;-58
2022/01/18 05:49:06;;;;;;;3.77;2.47;;;2.00;73.30;;;1.81;53.60;95699.25;5079288;28;20459;-57
2022/01/18 05:51:36;;;;;;;2.67;2.37;;;2.00;73.10;;;1.78;52.96;95695.06;5077309;28;20466;-58
2022/01/18 05:54:05;;;;;;;2.37;2.17;;;2.00;72.70;;;1.76;53.61;95699.47;5072467;28;21252;-56
2022/01/18 05:56:32;;;;;;;1.90;1.80;;;2.00;73.00;;;1.76;53.02;95716.78;5075950;28;20547;-57
2022/01/18 05:59:03;;;;;;;2.20;2.00;;;2.00;72.80;;;1.71;53.68;95703.16;5072443;28;20496;-58
2022/01/18 06:01:33;;;;;;;7.73;1.80;;;1.90;72.50;;;1.68;53.03;95714.50;5077709;28;20478;-58
2022/01/18 06:04:17;;;;;;;1.90;1.70;;;1.90;72.30;;;1.69;52.10;95717.94;5073372;28;20451;-58
2022/01/18 06:06:53;;;;;;;2.17;1.97;;;1.90;72.40;;;1.78;53.20;95733.09;5075327;28;20462;-57
2022/01/18 06:09:21;;;;;;;3.27;1.50;;;2.00;72.90;;;1.89;52.94;95732.66;5082300;28;20564;-57
2022/01/18 06:11:49;;;;;;;1.90;1.70;;;2.10;73.40;;;2.07;53.10;95731.84;5073190;28;20475;-58
2022/01/18 06:14:18;;;;;;;1.50;1.40;;;2.20;73.30;;;2.25;52.06;95745.78;5077283;28;20545;-57
2022/01/18 06:16:45;;;;;;;1.47;1.37;;;2.40;72.80;;;2.46;52.16;95744.00;5077987;28;20466;-58
2022/01/18 06:19:12;;;;;;;1.43;1.33;;;2.60;72.90;;;2.73;52.51;95750.59;5082619;28;20451;-57
2022/01/18 06:21:40;;;;;;;2.00;1.90;;;2.80;72.30;;;3.03;51.76;95764.75;5079988;28;20550;-58
2022/01/18 06:24:09;;;;;;;3.53;1.97;;;3.00;72.10;;;3.40;51.40;95769.97;5077957;28;20478;-59
2022/01/18 06:26:37;;;;;;;2.60;1.83;;;3.30;71.20;;;3.81;51.13;95777.53;5078007;28;20524;-57
2022/01/18 06:29:04;;;;;;;2.07;1.77;;;3.70;70.50;;;4.28;50.47;95784.69;5080038;28;20846;-58
2022/01/18 06:31:33;;;;;;;1.93;1.83;;;4.20;70.80;;;4.76;49.33;95774.38;5077540;28;20485;-56
2022/01/18 06:34:01;;;;;;;3.60;2.40;;;4.70;69.00;;;5.21;48.64;95800.66;5069590;28;20447;-58
2022/01/18 06:36:28;;;;;;;3.40;2.10;;;5.20;67.70;;;5.65;47.35;95796.47;5074209;28;20467;-58
2022/01/18 06:38:56;;;;;;;2.67;2.47;;;5.60;65.60;;;6.08;46.05;95789.66;5074936;28;20458;-59
2022/01/18 06:41:23;;;;;;;2.80;2.20;;;6.00;63.20;;;6.57;46.03;95790.31;5078904;28;20467;-59
2022/01/18 06:43:51;;;;;;;2.07;1.87;;;6.50;62.50;;;7.07;46.09;95799.44;5077534;28;20443;-57
2022/01/18 06:46:18;;;;;;;5.10;2.13;;;7.00;62.80;;;7.44;44.75;95798.91;5075149;28;20486;-56
2022/01/18 06:48:47;;;;;;;3.17;2.67;;;7.50;60.00;;;7.80;44.56;95792.22;5078211;28;20454;-60
2022/01/18 06:51:15;;;;;;;3.80;3.17;;;7.80;58.80;;;8.18;43.10;95787.09;5077947;28;20497;-58
2022/01/18 06:53:46;;;;;;;5.83;2.40;;;8.30;56.50;;;8.60;42.75;95798.25;5074862;28;20461;-57
2022/01/18 06:56:15;;;;;;;2.40;2.20;;;8.60;56.20;;;8.97;43.08;95790.47;5077195;28;21041;-59
2022/01/18 06:58:42;;;;;;;2.50;2.30;;;9.00;57.10;;;9.36;42.98;95794.78;5076494;28;20495;-58
2022/01/18 07:01:10;;;;;;;3.03;1.70;;;9.40;56.30;;;9.70;41.52;95798.47;5074820;28;20467;-58
2022/01/18 07:03:37;;;;;;;2.27;1.57;;;9.80;54.30;;;10.18;40.45;95811.59;5076800;28;20523;-57
2022/01/18 07:06:06;;;;;;;1.50;1.40;;;10.30;52.00;;;10.30;38.94;95807.22;5075584;28;21155;-58
2022/01/18 07:08:34;;;;;;;1.80;1.70;;;10.50;50.10;;;10.25;39.69;95811.97;5072996;28;21002;-57
2022/01/18 07:11:02;;;;;;;1.50;1.23;;;10.50;49.50;;;10.42;39.93;95810.72;5074369;28;20471;-58
2022/01/18 07:13:30;;;;;;;3.23;1.60;;;10.70;50.30;;;10.70;39.55;95809.47;5080685;28;20450;-57
2022/01/18 07:15:57;;;;;;;14.40;9.40;;;10.90;49.80;;;11.11;38.28;95823.88;5074151;28;20828;-59
2022/01/18 07:18:25;;;;;;;2.33;2.00;;;11.30;47.40;;;11.42;38.84;95810.91;5071367;28;20450;-58
2022/01/18 07:20:52;;;;;;;1.60;1.50;;;11.70;48.80;;;11.78;38.21;95845.00;5072867;28;20462;-56
2022/01/18 07:23:22;;;;;;;1.83;1.73;;;12.10;47.40;;;12.16;37.43;95846.34;5073500;28;20530;-57
2022/01/18 07:25:49;;;;;;;1.57;1.47;;;12.50;46.80;;;12.60;36.36;95843.66;5071483;28;20490;-58
2022/01/18 07:28:18;;;;;;;2.20;2.00;;;13.00;45.60;;;13.06;34.60;95850.34;5074140;28;20473;-57
2022/01/18 07:30:45;;;;;;;3.10;1.73;;;13.50;44.00;;;13.47;35.84;95861.81;5077652;28;21101;-57
2022/01/18 07:33:13;;;;;;;1.60;1.50;;;13.90;44.90;;;13.87;35.44;95866.25;5074963;28;20504;-58
2022/01/18 07:35:41;;;;;;;3.10;2.43;;;14.40;44.50;;;14.22;34.95;95864.94;5080755;28;20850;-57
2022/01/18 07:38:12;;;;;;;2.60;1.90;;;14.70;43.30;;;14.55;31.88;95859.34;5073195;28;20454;-57
2022/01/18 07:40:41;;;;;;;2.70;2.07;;;15.00;40.50;;;14.83;32.87;95858.53;5077222;28;21002;-57
2022/01/18 07:43:09;;;;;;;1.80;1.70;;;15.20;40.70;;;15.12;32.90;95867.38;5073117;28;20442;-57
2022/01/18 07:45:36;;;;;;;2.50;1.60;;;15.30;40.70;;;15.19;31.61;95852.59;5075436;28;20509;-57
2022/01/18 07:48:04;;;;;;;2.90;1.37;;;15.40;39.50;;;15.05;31.62;95860.00;5074073;28;20497;-58
2022/01/18 07:50:32;;;;;;;3.27;3.07;;;15.20;39.20;;;14.92;31.61;95856.84;5074876;28;20469;-56
2022/01/18 07:52:59;;;;;;;5.87;5.20;;;14.90;38.80;;;14.95;31.12;95875.13;5073712;28;20447;-59
2022/01/18 07:55:26;;;;;;;2.90;2.70;;;14.80;38.40;;;15.02;31.69;95870.06;5079154;28;20482;-58
2022/01/18 07:57:57;;;;;;;1.93;1.57;;;14.80;38.60;;;15.12;32.26;95867.38;5074993;28;20515;-59
2022/01/18 08:00:25;;;;;;;1.67;1.57;;;14.80;39.30;;;15.18;31.06;95872.13;5077617;28;20494;-58
2022/01/18 08:02:52;;;;;;;1.93;1.47;;;14.90;38.60;;;15.29;31.16;95874.63;5075621;28;20442;-56
2022/01/18 08:05:20;;;;;;;3.40;1.70;;;15.00;38.40;;;15.28;29.99;95875.59;5077215;28;20956;-58
2022/01/18 08:07:47;;;;;;;3.73;1.60;;;15.00;37.90;;;15.23;31.09;95880.50;5072426;28;20525;-57
2022/01/18 08:10:16;;;;;;;1.63;1.50;;;15.00;37.60;;;15.19;31.06;95879.09;5073012;28;20539;-57
2022/01/18 08:12:43;;;;;;;1.93;1.73;;;14.90;38.00;;;15.16;31.75;95884.69;5075268;28;20542;-57
2022/01/18 08:15:18;;;;;;;1.53;1.43;;;14.90;39.40;;;15.21;31.34;95887.72;5073957;28;20459;-57
2022/01/18 08:17:48;;;;;;;1.77;1.53;;;14.90;38.70;;;15.34;31.26;95888.25;5074536;28;20535;-58
2022/01/18 08:20:16;;;;;;;1.43;1.33;;;14.90;38.20;;;15.44;30.45;95890.06;5080180;28;20463;-58
2022/01/18 08:22:44;;;;;;;3.93;1.67;;;15.00;38.10;;;15.47;30.80;95890.59;5080901;28;20450;-58
2022/01/18 08:25:11;;;;;;;1.70;1.60;;;15.00;37.60;;;15.51;30.19;95894.63;5080908;28;20871;-59
2022/01/18 08:27:39;;;;;;;1.57;1.47;;;15.10;37.30;;;15.63;31.01;95908.56;5078729;28;20454;-58
2022/01/18 08:30:08;;;;;;;4.60;1.67;;;15.20;38.10;;;15.52;29.79;95904.25;5079012;28;20489;-58
2022/01/18 08:32:37;;;;;;;1.33;1.23;;;15.10;36.50;;;15.37;29.95;95898.59;5076260;28;20454;-57
2022/01/18 08:35:05;;;;;;;2.43;1.23;;;15.00;37.00;;;15.06;28.06;95901.44;5078818;28;20509;-58
2022/01/18 08:37:32;;;;;;;6.70;1.50;;;14.70;34.60;;;14.90;28.92;95906.47;5079175;28;20827;-58
2022/01/18 08:40:00;;;;;;;1.73;1.43;;;14.50;34.90;;;14.81;29.97;95907.31;5081707;28;20450;-57
2022/01/18 08:42:27;;;;;;;3.93;1.30;;;14.40;36.40;;;14.68;28.72;95918.19;5079580;28;20455;-57
2022/01/18 08:44:55;;;;;;;1.63;1.37;;;14.30;35.40;;;14.67;28.34;95908.56;5082118;28;20458;-57
2022/01/18 08:47:23;;;;;;;1.53;1.43;;;14.20;34.80;;;14.68;28.58;95892.53;5078311;28;20488;-58
2022/01/18 08:49:52;;;;;;;2.03;1.93;;;14.30;35.40;;;14.35;27.42;95901.72;5080730;28;20461;-58
2022/01/18 08:52:20;;;;;;;3.00;1.80;;;14.00;33.00;;;13.96;27.86;95904.28;5080877;28;20974;-59
2022/01/18 08:54:47;;;;;;;2.07;1.93;;;13.70;33.90;;;13.80;29.25;95900.34;5078962;28;20446;-57
2022/01/18 08:57:15;;;;;;;1.50;1.40;;;13.40;35.70;;;13.79;29.97;95911.06;5074541;28;20455;-59
2022/01/18 08:59:43;;;;;;;2.17;2.07;;;13.40;36.50;;;13.86;30.14;95904.25;5077896;28;20496;-59
2022/01/18 09:02:11;;;;;;;2.00;1.80;;;13.40;37.10;;;13.99;30.04;95912.78;5076258;28;20474;-58
2022/01/18 09:04:38;;;;;;;3.80;2.00;;;13.50;36.70;;;14.15;29.94;95912.25;5076306;28;20991;-58
2022/01/18 09:07:09;;;;;;;12.10;2.60;;;13.70;36.20;;;14.12;29.25;95909.06;5079091;28;20868;-57
2022/01/18 09:09:38;;;;;;;2.53;1.90;;;13.70;35.30;;;14.05;29.68;95908.75;5080561;28;20823;-58
2022/01/18 09:12:07;;;;;;;3.40;2.43;;;13.60;35.50;;;14.09;30.51;95906.69;5082184;28;20467;-58
2022/01/18 09:14:34;;;;;;;2.10;2.00;;;13.60;37.10;;;14.07;30.43;95917.41;5083235;28;20516;-57
2022/01/18 09:17:02;;;;;;;3.97;2.10;;;13.60;37.30;;;13.87;29.17;95915.66;5079321;28;20471;-57
2022/01/18 09:19:29;;;;;;;4.03;2.30;;;13.40;35.30;;;13.45;30.33;95920.09;5083945;28;20449;-58
2022/01/18 09:21:58;;;;;;;2.60;2.03;;;13.10;36.50;;;12.71;29.62;95920.13;5077601;28;20467;-58
2022/01/18 09:24:27;;;;;;;5.90;2.13;;;12.60;35.30;;;11.87;30.73;95925.13;5082116;28;20615;-56
2022/01/18 09:26:56;;;;;;;2.00;1.80;;;11.90;35.80;;;11.18;32.12;95926.09;5081651;28;20589;-58
2022/01/18 09:29:23;;;;;;;4.80;2.00;;;11.30;37.70;;;10.91;32.81;95921.97;5079122;28;20454;-59
2022/01/18 09:31:51;;;;;;;3.77;1.63;;;10.90;38.60;;;11.07;32.97;95917.19;5076095;28;20478;-59
2022/01/18 09:34:18;;;;;;;3.00;2.40;;;10.80;39.40;;;11.24;32.82;95922.97;5076643;28;20459;-57
2022/01/18 09:36:45;;;;;;;2.60;1.93;;;10.90;39.60;;;11.42;32.29;95926.00;5078163;28;20465;-58
2022/01/18 09:39:13;;;;;;;2.10;1.77;;;11.00;39.00;;;11.34;32.75;95923.09;5081096;28;20454;-58
2022/01/18 09:41:43;;;;;;;2.40;2.17;;;11.10;39.60;;;11.26;32.58;95921.06;5078057;28;20473;-59
2022/01/18 09:44:11;;;;;;;2.67;2.40;;;11.00;39.40;;;11.52;32.46;95920.84;5076837;28;20443;-58
2022/01/18 09:46:38;;;;;;;3.00;2.17;;;11.10;39.60;;;12.01;32.47;95935.47;5078543;28;20497;-56
2022/01/18 09:49:06;;;;;;;5.17;2.13;;;11.50;39.70;;;12.38;31.88;95917.50;5075459;28;20447;-58
2022/01/18 09:51:34;;;;;;;11.77;2.40;;;11.90;39.30;;;12.65;31.77;95918.84;5077262;28;20470;-58
2022/01/18 09:54:01;;;;;;;2.90;2.57;;;12.20;39.00;;;12.83;31.53;95919.13;5078851;28;20459;-59
2022/01/18 09:56:28;;;;;;;2.93;2.40;;;12.40;38.10;;;13.08;30.92;95911.78;5078276;28;20474;-61
2022/01/18 09:58:57;;;;;;;6.93;2.87;;;12.60;38.20;;;13.35;31.32;95924.47;5078662;28;20920;-58
2022/01/18 10:01:25;;;;;;;2.50;2.30;;;12.80;38.70;;;13.61;31.10;95924.88;5079540;28;20494;-59
2022/01/18 10:03:52;;;;;;;2.10;2.00;;;13.10;38.10;;;13.68;30.61;95925.22;5076261;28;20893;-59
2022/01/18 10:06:21;;;;;;;3.67;2.60;;;13.20;38.00;;;13.70;30.60;95922.44;5074103;28;20867;-58
2022/01/18 10:08:49;;;;;;;10.67;2.20;;;13.20;37.20;;;13.58;30.66;95924.31;5073465;28;20446;-59
2022/01/18 10:11:18;;;;;;;2.40;2.00;;;13.20;37.50;;;13.64;30.40;95915.84;5072084;28;20495;-58
2022/01/18 10:13:47;;;;;;;4.50;1.90;;;13.20;36.90;;;13.81;30.38;95915.22;5083599;28;20944;-59
2022/01/18 10:16:19;;;;;;;3.47;2.43;;;13.30;37.50;;;13.96;30.16;95893.72;5078285;28;20481;-57
2022/01/18 10:18:48;;;;;;;5.93;2.50;;;13.50;37.40;;;14.06;29.66;95915.72;5078793;28;20946;-60
2022/01/18 10:21:26;;;;;;;2.27;2.07;;;13.60;36.50;;;14.19;29.54;95901.41;5078799;28;20491;-59
2022/01/18 10:23:56;;;;;;;3.00;1.33;;;13.70;36.50;;;14.28;28.89;95896.13;5078518;28;20477;-58
2022/01/18 10:26:25;;;;;;;7.40;2.20;;;13.70;35.60;;;14.18;27.92;95894.44;5079432;28;20572;-60
2022/01/18 10:29:01;;;;;;;4.87;2.67;;;13.70;34.00;;;14.13;29.11;95886.91;5075566;28;20446;-59
2022/01/18 10:31:36;;;;;;;3.73;2.13;;;13.70;35.40;;;14.18;27.87;95884.69;5081322;28;20987;-58
2022/01/18 10:34:21;;;;;;;4.60;2.20;;;13.70;34.60;;;14.35;29.25;95880.53;5075391;28;20586;-59
2022/01/18 10:37:03;;;;;;;3.77;2.10;;;13.80;36.20;;;14.57;28.16;95884.72;5075930;28;20481;-59
2022/01/18 10:39:34;;;;;;;4.73;2.40;;;14.00;34.70;;;14.67;27.84;95859.13;5078822;28;20454;-60
2022/01/18 10:42:02;;;;;;;8.70;3.17;;;14.10;34.30;;;14.66;28.36;95860.06;5077373;28;20894;-60
2022/01/18 10:44:33;;;;;;;9.50;2.40;;;14.10;34.50;;;14.75;28.62;95866.34;5076388;28;20446;-58
2022/01/18 10:47:02;;;;;;;2.30;2.10;;;14.20;35.00;;;14.88;28.15;95868.69;5075397;28;20654;-60
2022/01/18 10:49:39;;;;;;;2.93;2.70;;;14.40;34.60;;;15.00;28.29;95870.22;5077621;28;20455;-60
2022/01/18 10:52:14;;;;;;;5.23;2.70;;;14.50;34.90;;;15.16;26.83;95882.03;5073547;28;20494;-60
2022/01/18 10:54:46;;;;;;;2.83;2.33;;;14.60;33.50;;;15.23;27.08;95896.41;5075682;28;20524;-59
2022/01/18 10:57:15;;;;;;;2.40;1.80;;;14.80;33.70;;;15.17;28.04;95892.50;5070741;28;20811;-58
2022/01/18 10:59:43;;;;;;;2.80;2.30;;;14.80;33.60;;;15.21;26.23;95887.72;5076446;28;20454;-59
2022/01/18 11:02:14;;;;;;;4.17;2.27;;;14.80;32.20;;;14.83;26.58;95879.72;5072626;28;20467;-59
2022/01/18 11:04:45;;;;;;;2.43;1.80;;;14.40;32.50;;;14.18;27.88;95884.69;5075518;28;20443;-58
2022/01/18 11:07:13;;;;;;;2.50;2.07;;;14.00;33.00;;;13.79;28.23;95892.53;5074785;28;20490;-59
2022/01/18 11:09:41;;;;;;;3.13;2.57;;;13.70;33.40;;;13.89;29.03;95874.06;5074213;28;20447;-61
2022/01/18 11:12:09;;;;;;;2.90;2.30;;;13.50;34.90;;;14.07;27.21;95887.47;5076194;28;20474;-60
2022/01/18 11:14:39;;;;;;;8.10;1.83;;;13.60;33.50;;;14.18;28.22;95892.63;5074903;28;20451;-59
2022/01/18 11:17:13;;;;;;;2.40;2.20;;;13.80;34.50;;;14.32;27.72;95888.75;5073121;28;20466;-60
2022/01/18 11:19:41;;;;;;;5.60;2.50;;;13.90;33.60;;;14.11;27.93;95888.84;5082368;28;20847;-56
2022/01/18 11:22:10;;;;;;;3.50;1.93;;;13.90;34.00;;;13.85;28.29;95888.50;5073515;28;20491;-59
2022/01/18 11:24:43;;;;;;;2.40;2.20;;;13.70;33.90;;;13.58;28.38;95882.84;5072920;28;20793;-59